Decoded Metar for PASN (ST. PAUL ISLAND in AK, USA) (IATA:SNP) | Meteo·Mobile Aviation Weather
aviador You're here:

PASN Decoded Metar

ST. PAUL ISLAND in AK, USA
Report Time2019-01-20 21:53:00
UTC Time2019-01-20 22:18:47
Flight Rules vfr VFR
Wind060° at 28 Gusting to 37 kt
W.Decomp.*RWY 36: 18.0 kt HW 21.4 kt RCW
W.Rank060° ranks 11
Current wind is above 060° avg. (12.7)
Visibility9999 m
Phenomena:Light Snow
Clouds:Scattered 018 Hf
Expected CloudBase > 1,600 ft AGL from Temp-Dew spread
CeilingNone
Temp-2°C (ISA -17)
Dew Point-6°C (74% RH)
AAT-14.8°C
QNH1004 hPa
Density Alt-1,604 ft
Elevation95 ft
Report Wrong Elevation
Raw Report
PASN 202153Z AUTO 06028G37KT 9SM -SN SCT018 M02/M06 A2965 RMK AO2
PK WND 06039/2126 SLP042 P0000 T10171056 TSNO=

Extra information for PASN:More info

Metar Taf Metar & Taf Last 4 Metars F.Rules Stats Wind Profile Meteogram Temp Stats Airport Information Weather charts Add Link Nearby VenuesMetar ALERT Operation Metar Decoded Social comments

AIRNAV info for PASN